createdAt,value
2019-05-05T00:01:45.212Z,100257.24
2019-05-05T00:04:39.104Z,100274.69
2019-05-05T00:07:08.282Z,100262.05
2019-05-05T00:09:37.477Z,100260.70
2019-05-05T00:12:29.869Z,100258.97
2019-05-05T00:15:18.411Z,100260.25
2019-05-05T00:17:47.605Z,100261.06
2019-05-05T00:20:16.832Z,100262.34
2019-05-05T00:22:45.997Z,100263.61
2019-05-05T00:25:15.105Z,100255.67
2019-05-05T00:27:45.242Z,100259.45
2019-05-05T00:30:14.756Z,100259.81
2019-05-05T00:32:44.321Z,100257.48
2019-05-05T00:35:14.853Z,100263.03
2019-05-05T00:37:45.090Z,100266.84
2019-05-05T00:40:15.108Z,100278.55
2019-05-05T00:42:45.588Z,100276.22
2019-05-05T00:45:14.903Z,100275.66
2019-05-05T00:47:54.284Z,100280.08
2019-05-05T00:50:25.263Z,100284.26
2019-05-05T00:52:55.062Z,100288.55
2019-05-05T00:55:24.513Z,100291.16
2019-05-05T00:57:54.794Z,100292.97
2019-05-05T01:00:44.421Z,100290.75
2019-05-05T01:03:15.312Z,100289.02
2019-05-05T01:06:09.306Z,100294.23
2019-05-05T01:08:38.416Z,100292.01
2019-05-05T01:11:07.758Z,100288.48
2019-05-05T01:13:37.217Z,100287.55
2019-05-05T01:16:06.356Z,100290.59
2019-05-05T01:18:35.480Z,100298.80
2019-05-05T01:21:04.703Z,100296.11
2019-05-05T01:23:34.991Z,100300.36
2019-05-05T01:26:05.147Z,100292.92
2019-05-05T01:28:35.527Z,100293.30
2019-05-05T01:34:15.118Z,100293.26
2019-05-05T01:36:45.374Z,100291.07
2019-05-05T01:39:34.564Z,100295.33
2019-05-05T01:42:10.098Z,100229.07
2019-05-05T01:44:39.222Z,100306.09
2019-05-05T01:47:08.466Z,100306.48
2019-05-05T01:49:37.693Z,100306.06
2019-05-05T01:52:06.858Z,100308.13
2019-05-05T01:54:35.982Z,100311.94
2019-05-05T01:57:05.599Z,100313.67
2019-05-05T01:59:35.505Z,100317.11
2019-05-05T02:02:04.742Z,100308.58
2019-05-05T02:04:34.405Z,100324.86
2019-05-05T02:07:05.467Z,100321.78
2019-05-05T02:09:36.713Z,100325.27
2019-05-05T02:12:05.863Z,100324.86
2019-05-05T02:14:35.327Z,100317.03
2019-05-05T02:17:05.166Z,100322.16
2019-05-05T02:19:34.990Z,100317.88
2019-05-05T02:22:05.290Z,100320.02
2019-05-05T02:24:35.358Z,100317.79
2019-05-05T02:27:05.237Z,100319.43
2019-05-05T02:29:40.344Z,100320.27
2019-05-05T02:34:59.059Z,100326.33
2019-05-05T02:37:28.196Z,100325.36
2019-05-05T02:40:02.951Z,100321.45
2019-05-05T02:42:29.097Z,100327.08
2019-05-05T02:45:01.663Z,100324.00
2019-05-05T02:47:55.194Z,100329.59
2019-05-05T02:50:27.479Z,100322.98
2019-05-05T02:52:59.565Z,100330.72
2019-05-05T02:55:32.191Z,100332.82
2019-05-05T02:58:03.707Z,100327.94
2019-05-05T03:00:50.495Z,100262.61
2019-05-05T03:03:19.724Z,100334.08
2019-05-05T03:05:48.959Z,100330.50
2019-05-05T03:08:18.434Z,100335.67
2019-05-05T03:10:47.738Z,100336.88
2019-05-05T03:13:18.172Z,100335.02
2019-05-05T03:15:54.922Z,100338.42
2019-05-05T03:18:24.745Z,100341.02
2019-05-05T03:21:02.410Z,100347.49
2019-05-05T03:23:25.864Z,100340.84
2019-05-05T03:25:55.300Z,100345.13
2019-05-05T03:28:26.650Z,100349.41
2019-05-05T03:30:56.455Z,100348.55
2019-05-05T03:33:25.624Z,100354.19
2019-05-05T03:35:54.879Z,100348.88
2019-05-05T03:38:24.873Z,100358.38
2019-05-05T03:40:55.575Z,100354.38
2019-05-05T03:43:28.889Z,100356.05
2019-05-05T03:46:00.562Z,100360.70
2019-05-05T03:48:29.992Z,100363.34
2019-05-05T03:50:59.128Z,100362.09
2019-05-05T03:53:29.078Z,100358.79
2019-05-05T03:55:58.217Z,100360.98
2019-05-05T03:58:28.010Z,100363.72
2019-05-05T04:01:36.954Z,100362.43
2019-05-05T04:04:44.133Z,100369.50
2019-05-05T04:07:14.025Z,100380.11
2019-05-05T04:09:44.289Z,100381.59
2019-05-05T04:12:14.324Z,100380.38
2019-05-05T04:14:45.754Z,100376.06
2019-05-05T04:17:33.863Z,100381.74
2019-05-05T04:20:24.077Z,100380.81
2019-05-05T04:22:54.257Z,100385.92
2019-05-05T04:25:24.401Z,100390.63
2019-05-05T04:27:53.946Z,100393.32
2019-05-05T04:30:23.796Z,99979.59
2019-05-05T04:32:54.609Z,100406.97
2019-05-05T04:35:24.641Z,100400.63
2019-05-05T04:37:54.403Z,100395.05
2019-05-05T04:40:24.183Z,100401.19
2019-05-05T04:42:54.696Z,100407.48
2019-05-05T04:45:24.226Z,100414.13
2019-05-05T04:51:17.140Z,100419.15
2019-05-05T04:54:03.979Z,100417.55
2019-05-05T04:56:34.297Z,100415.36
2019-05-05T04:59:04.101Z,100417.61
2019-05-05T05:01:33.785Z,100412.06
2019-05-05T05:04:24.933Z,100416.48
2019-05-05T05:06:55.699Z,100419.22
2019-05-05T05:09:24.893Z,100420.98
2019-05-05T05:11:54.716Z,100421.83
2019-05-05T05:14:24.802Z,100051.65
2019-05-05T05:16:55.051Z,100424.39
2019-05-05T05:19:24.333Z,100436.34
2019-05-05T05:22:01.727Z,100435.55
2019-05-05T05:24:27.447Z,100439.64
2019-05-05T05:26:56.661Z,100449.36
2019-05-05T05:29:25.791Z,100454.38
2019-05-05T05:31:54.948Z,100458.47
2019-05-05T05:34:24.065Z,100455.60
2019-05-05T05:36:53.683Z,100465.29
2019-05-05T05:39:44.683Z,100467.14
2019-05-05T05:42:13.878Z,100472.06
2019-05-05T05:44:54.209Z,100478.21
2019-05-05T05:47:53.562Z,100479.13
2019-05-05T05:50:29.914Z,100484.11
2019-05-05T05:52:59.059Z,100484.23
2019-05-05T05:55:28.167Z,100491.72
2019-05-05T05:57:57.315Z,100491.55
2019-05-05T06:00:26.725Z,100484.41
2019-05-05T06:02:55.879Z,100490.78
2019-05-05T06:05:25.010Z,100494.97
2019-05-05T06:07:54.586Z,100497.39
2019-05-05T06:10:26.676Z,100500.72
2019-05-05T06:12:54.863Z,100497.94
2019-05-05T06:15:24.546Z,100492.03
2019-05-05T06:17:53.995Z,100494.99
2019-05-05T06:20:23.831Z,100494.52
2019-05-05T06:22:53.673Z,100498.85
2019-05-05T06:25:26.547Z,100501.75
2019-05-05T06:27:56.086Z,100499.67
2019-05-05T06:30:25.200Z,100504.91
2019-05-05T06:32:54.661Z,100513.77
2019-05-05T06:35:24.452Z,100517.39
2019-05-05T06:37:54.452Z,100510.08
2019-05-05T06:40:44.271Z,100511.08
2019-05-05T06:43:30.936Z,100512.95
2019-05-05T06:46:03.939Z,100513.03
2019-05-05T06:48:34.377Z,100516.76
2019-05-05T06:51:04.044Z,100520.61
2019-05-05T06:53:34.241Z,100525.73
2019-05-05T06:56:04.077Z,100522.03
2019-05-05T06:58:34.709Z,100528.72
2019-05-05T07:01:03.966Z,100527.09
2019-05-05T07:03:33.779Z,100529.81
2019-05-05T07:06:04.257Z,100525.49
2019-05-05T07:08:34.753Z,100528.11
2019-05-05T07:11:04.279Z,100530.29
2019-05-05T07:13:34.050Z,100538.14
2019-05-05T07:16:04.880Z,100541.75
2019-05-05T07:18:34.321Z,100537.61
2019-05-05T07:21:03.824Z,100534.77
2019-05-05T07:23:34.143Z,100531.43
2019-05-05T07:26:04.139Z,100531.69
2019-05-05T07:28:34.372Z,100530.20
2019-05-05T07:31:04.423Z,100536.15
2019-05-05T07:33:34.637Z,100538.97
2019-05-05T07:36:24.962Z,100537.81
2019-05-05T07:38:54.690Z,100531.85
2019-05-05T07:41:23.931Z,100534.19
2019-05-05T07:43:54.234Z,100533.31
2019-05-05T07:46:24.125Z,100529.75
2019-05-05T07:48:54.491Z,100520.52
2019-05-05T07:51:24.297Z,100516.62
2019-05-05T07:53:54.720Z,100508.73
2019-05-05T07:56:24.091Z,100505.25
2019-05-05T07:58:54.365Z,100498.77
2019-05-05T08:01:24.483Z,100498.99
2019-05-05T08:03:53.994Z,100493.48
2019-05-05T08:06:23.688Z,100494.40
2019-05-05T08:08:54.556Z,100493.61
2019-05-05T08:11:23.970Z,100494.13
2019-05-05T08:13:54.731Z,100496.66
2019-05-05T08:16:41.529Z,100485.42
2019-05-05T08:19:43.383Z,100493.17
2019-05-05T08:22:14.138Z,100487.17
2019-05-05T08:25:05.433Z,100493.88
2019-05-05T08:27:48.594Z,100491.55
2019-05-05T08:30:24.425Z,100485.00
2019-05-05T08:32:54.609Z,100143.92
2019-05-05T08:35:23.918Z,100487.03
2019-05-05T08:37:54.242Z,100484.67
2019-05-05T08:40:24.032Z,100483.74
2019-05-05T08:45:27.970Z,100487.36
2019-05-05T08:47:57.107Z,100336.55
2019-05-05T08:50:27.132Z,100492.59
2019-05-05T08:53:04.454Z,100484.63
2019-05-05T08:55:38.701Z,100506.73
2019-05-05T08:58:10.271Z,100506.28
2019-05-05T09:00:40.200Z,100512.61
2019-05-05T09:03:18.877Z,100515.69
2019-05-05T09:05:48.161Z,100510.48
2019-05-05T09:08:17.339Z,100504.30
2019-05-05T09:10:46.583Z,100507.06
2019-05-05T09:15:48.276Z,100501.72
2019-05-05T09:19:17.676Z,100510.45
2019-05-05T09:25:57.669Z,100484.63
2019-05-05T09:28:33.999Z,100492.52
2019-05-05T09:31:04.171Z,100501.77
2019-05-05T09:33:33.958Z,100500.08
2019-05-05T09:36:04.699Z,100510.51
2019-05-05T09:38:34.711Z,100504.64
2019-05-05T09:41:04.455Z,100504.29
2019-05-05T09:43:34.565Z,100511.98
2019-05-05T09:46:04.091Z,100515.01
2019-05-05T09:48:33.652Z,100505.25
2019-05-05T09:51:04.383Z,100507.05
2019-05-05T09:53:35.311Z,100507.58
2019-05-05T09:56:04.707Z,100504.06
2019-05-05T09:58:34.854Z,100505.89
2019-05-05T10:01:05.005Z,100509.53
2019-05-05T10:03:34.198Z,100525.13
2019-05-05T10:06:05.016Z,100530.02
2019-05-05T10:08:34.338Z,100531.02
2019-05-05T10:11:04.086Z,100534.23
2019-05-05T10:13:33.750Z,100538.70
2019-05-05T10:16:03.973Z,100538.77
2019-05-05T10:18:35.560Z,100545.00
2019-05-05T10:21:04.696Z,100555.18
2019-05-05T10:23:35.718Z,100562.27
2019-05-05T10:26:07.964Z,100555.22
2019-05-05T10:28:37.125Z,100550.77
2019-05-05T10:31:06.291Z,100549.94
2019-05-05T10:33:38.406Z,100547.30
2019-05-05T10:36:07.534Z,100549.45
2019-05-05T10:38:38.318Z,100549.45
2019-05-05T10:41:07.442Z,100553.83
2019-05-05T10:43:36.554Z,100551.53
2019-05-05T10:46:05.670Z,100546.03
2019-05-05T10:48:34.824Z,100542.82
2019-05-05T10:51:04.317Z,100546.75
2019-05-05T10:53:33.556Z,100551.11
2019-05-05T10:56:04.424Z,100547.47
2019-05-05T10:58:33.696Z,100550.40
2019-05-05T11:01:04.183Z,100535.52
2019-05-05T11:03:34.390Z,100529.98
2019-05-05T11:06:04.585Z,100533.05
2019-05-05T11:08:34.798Z,100523.44
2019-05-05T11:11:04.482Z,100516.44
2019-05-05T11:13:34.485Z,100513.86
2019-05-05T11:16:04.040Z,100514.66
2019-05-05T11:18:34.605Z,100514.61
2019-05-05T11:21:04.174Z,100510.92
2019-05-05T11:23:34.601Z,100515.15
2019-05-05T11:26:03.838Z,100516.36
2019-05-05T11:28:35.433Z,100509.16
2019-05-05T11:31:04.748Z,100514.91
2019-05-05T11:33:48.998Z,100516.14
2019-05-05T11:36:31.631Z,100525.05
2019-05-05T11:39:00.778Z,100519.31
2019-05-05T11:41:29.921Z,100514.02
2019-05-05T11:43:59.230Z,100517.08
2019-05-05T11:46:29.276Z,100513.10
2019-05-05T11:48:58.728Z,100511.44
2019-05-05T11:51:27.827Z,100514.31
2019-05-05T11:53:56.991Z,100517.40
2019-05-05T11:56:26.103Z,100511.25
2019-05-05T11:58:55.240Z,100509.06
2019-05-05T12:01:24.570Z,100511.97
2019-05-05T12:03:53.934Z,100509.05
2019-05-05T12:06:24.648Z,100514.98
2019-05-05T12:08:53.896Z,100521.17
2019-05-05T12:11:23.985Z,100518.61
2019-05-05T12:13:54.625Z,100518.11
2019-05-05T12:16:31.065Z,100524.37
2019-05-05T12:19:02.630Z,100521.33
2019-05-05T12:21:33.749Z,100518.92
2019-05-05T12:24:06.479Z,100517.98
2019-05-05T12:26:54.113Z,100520.30
2019-05-05T12:29:28.942Z,100519.36
2019-05-05T12:31:58.082Z,100520.47
2019-05-05T12:34:27.173Z,100525.29
2019-05-05T12:36:56.303Z,100523.52
2019-05-05T12:39:25.411Z,100522.63
2019-05-05T12:41:54.607Z,100521.16
2019-05-05T12:44:28.644Z,100519.42
2019-05-05T12:47:14.538Z,100515.86
2019-05-05T12:49:44.038Z,100516.56
2019-05-05T12:52:13.936Z,100517.91
2019-05-05T12:54:44.041Z,100519.97
2019-05-05T12:57:13.760Z,100518.64
2019-05-05T12:59:44.391Z,100520.14
2019-05-05T13:02:14.305Z,100528.26
2019-05-05T13:04:43.586Z,100531.91
2019-05-05T13:07:13.607Z,100518.92
2019-05-05T13:09:44.116Z,100523.45
2019-05-05T13:12:14.986Z,100523.95
2019-05-05T13:14:44.176Z,100524.87
2019-05-05T13:17:14.213Z,100528.75
2019-05-05T13:20:02.537Z,100531.41
2019-05-05T13:23:08.900Z,100526.94
2019-05-05T13:26:09.615Z,100529.50
2019-05-05T13:28:38.749Z,100532.61
2019-05-05T13:31:07.879Z,100539.29
2019-05-05T13:33:37.437Z,100533.84
2019-05-05T13:36:06.567Z,100536.48
2019-05-05T13:38:35.701Z,100540.47
2019-05-05T13:41:04.898Z,100543.33
2019-05-05T13:43:34.316Z,100540.07
2019-05-05T13:46:11.319Z,100541.79
2019-05-05T13:48:40.457Z,100535.68
2019-05-05T13:51:09.666Z,100547.03
2019-05-05T13:53:38.795Z,100542.09
2019-05-05T13:56:12.344Z,100542.08
2019-05-05T13:58:38.855Z,100542.03
2019-05-05T14:01:09.890Z,100541.23
2019-05-05T14:03:38.905Z,100531.03
2019-05-05T14:06:08.053Z,100537.98
2019-05-05T14:08:37.254Z,100533.07
2019-05-05T14:11:06.436Z,100530.39
2019-05-05T14:13:35.558Z,100529.37
2019-05-05T14:16:04.814Z,100521.27
2019-05-05T14:18:33.940Z,100525.48
2019-05-05T14:21:03.083Z,100524.34
2019-05-05T14:23:34.561Z,100526.45
2019-05-05T14:26:04.784Z,100524.52
2019-05-05T14:28:34.228Z,100519.66
2019-05-05T14:31:17.459Z,100521.31
2019-05-05T14:34:00.774Z,100521.53
2019-05-05T14:36:36.802Z,100521.17
2019-05-05T14:39:08.684Z,100522.20
2019-05-05T14:41:37.802Z,100508.05
2019-05-05T14:44:06.984Z,100513.42
2019-05-05T14:46:36.098Z,100513.42
2019-05-05T14:49:05.844Z,100519.77
2019-05-05T14:51:35.136Z,100514.36
2019-05-05T14:54:04.748Z,100510.45
2019-05-05T14:56:36.391Z,100516.19
2019-05-05T14:59:05.037Z,100512.58
2019-05-05T15:01:34.503Z,100531.95
2019-05-05T15:04:04.332Z,100531.08
2019-05-05T15:06:41.563Z,100533.00
2019-05-05T15:09:33.620Z,100547.94
2019-05-05T15:12:16.742Z,100542.62
2019-05-05T15:14:45.900Z,100542.64
2019-05-05T15:17:15.033Z,100541.90
2019-05-05T15:19:44.165Z,100546.88
2019-05-05T15:22:15.019Z,100543.59
2019-05-05T15:24:44.642Z,100547.17
2019-05-05T15:27:13.780Z,100547.62
2019-05-05T15:29:43.599Z,100535.69
2019-05-05T15:32:14.794Z,100532.13
2019-05-05T15:34:44.091Z,100528.56
2019-05-05T15:37:14.470Z,100530.38
2019-05-05T15:39:44.222Z,100528.30
2019-05-05T15:42:13.478Z,100523.86
2019-05-05T15:44:43.950Z,100482.62
2019-05-05T15:47:13.085Z,100518.19
2019-05-05T15:49:43.977Z,100510.25
2019-05-05T15:52:13.744Z,100364.19
2019-05-05T15:54:44.673Z,100510.14
2019-05-05T15:57:14.930Z,100517.99
2019-05-05T15:59:44.884Z,100517.31
2019-05-05T16:02:14.033Z,100518.12
2019-05-05T16:04:44.464Z,100513.00
2019-05-05T16:07:13.908Z,100518.14
2019-05-05T16:09:44.483Z,100518.84
2019-05-05T16:12:14.437Z,100512.13
2019-05-05T16:14:58.194Z,100520.67
2019-05-05T16:17:36.735Z,100525.53
2019-05-05T16:20:10.567Z,100525.00
2019-05-05T16:22:43.871Z,100528.09
2019-05-05T16:25:14.374Z,100529.44
2019-05-05T16:27:45.011Z,100527.66
2019-05-05T16:30:14.966Z,100528.27
2019-05-05T16:32:44.287Z,100529.25
2019-05-05T16:35:14.928Z,100535.52
2019-05-05T16:37:44.095Z,100533.40
2019-05-05T16:40:14.425Z,100541.87
2019-05-05T16:42:43.821Z,100538.80
2019-05-05T16:45:16.477Z,100542.77
2019-05-05T16:47:45.907Z,100539.73
2019-05-05T16:50:16.266Z,100532.25
2019-05-05T16:52:51.830Z,100530.02
2019-05-05T16:55:44.756Z,100532.25
2019-05-05T16:58:14.013Z,100528.64
2019-05-05T17:00:44.117Z,100532.97
2019-05-05T17:03:13.582Z,100533.13
2019-05-05T17:05:44.131Z,100532.25
2019-05-05T17:08:14.096Z,100535.42
2019-05-05T17:10:43.661Z,100533.66
2019-05-05T17:13:50.241Z,100530.53
2019-05-05T17:16:36.669Z,100535.02
2019-05-05T17:19:14.283Z,100533.44
2019-05-05T17:22:00.936Z,100534.36
2019-05-05T17:24:30.111Z,100538.37
2019-05-05T17:26:59.386Z,100536.61
2019-05-05T17:29:28.555Z,100535.34
2019-05-05T17:31:57.711Z,100543.92
2019-05-05T17:34:26.900Z,100542.65
2019-05-05T17:36:56.087Z,100536.09
2019-05-05T17:39:26.980Z,100544.96
2019-05-05T17:42:03.743Z,100545.58
2019-05-05T17:44:51.996Z,100543.47
2019-05-05T17:47:34.421Z,100551.02
2019-05-05T17:50:14.465Z,100548.14
2019-05-05T17:52:50.181Z,100552.64
2019-05-05T17:55:29.576Z,100555.37
2019-05-05T17:58:02.367Z,100555.51
2019-05-05T18:00:34.304Z,100557.77
2019-05-05T18:03:04.333Z,100548.17
2019-05-05T18:05:51.438Z,100553.08
2019-05-05T18:08:38.303Z,100549.61
2019-05-05T18:11:13.923Z,100551.84
2019-05-05T18:13:47.338Z,100558.55
2019-05-05T18:16:17.644Z,100560.35
2019-05-05T18:18:46.804Z,100562.59
2019-05-05T18:21:18.723Z,100558.66
2019-05-05T18:23:47.892Z,100561.34
2019-05-05T18:26:17.100Z,100561.80
2019-05-05T18:28:48.080Z,100564.91
2019-05-05T18:31:17.172Z,100561.44
2019-05-05T18:33:46.302Z,100567.20
2019-05-05T18:36:15.831Z,100572.08
2019-05-05T18:38:45.016Z,100568.61
2019-05-05T18:41:27.142Z,100572.15
2019-05-05T18:44:05.966Z,100572.16
2019-05-05T18:46:35.146Z,100580.13
2019-05-05T18:49:04.493Z,100579.74
2019-05-05T18:51:34.790Z,100579.77
2019-05-05T18:54:04.256Z,100580.26
2019-05-05T18:56:34.795Z,100589.09
2019-05-05T18:59:06.551Z,100589.13
2019-05-05T19:01:52.406Z,100593.55
2019-05-05T19:04:27.490Z,100597.98
2019-05-05T19:07:00.611Z,100595.34
2019-05-05T19:09:29.734Z,100600.63
2019-05-05T19:11:58.854Z,100604.17
2019-05-05T19:14:30.162Z,100601.53
2019-05-05T19:16:59.086Z,100605.48
2019-05-05T19:19:28.252Z,100607.67
2019-05-05T19:22:01.460Z,100606.34
2019-05-05T19:24:30.659Z,100609.41
2019-05-05T19:26:59.907Z,100613.39
2019-05-05T19:29:29.112Z,100614.25
2019-05-05T19:31:58.302Z,100616.45
2019-05-05T19:34:27.430Z,100618.19
2019-05-05T19:36:56.657Z,100616.83
2019-05-05T19:39:25.808Z,100623.84
2019-05-05T19:41:54.955Z,100626.44
2019-05-05T19:44:26.053Z,100472.34
2019-05-05T19:47:00.366Z,100630.33
2019-05-05T19:49:29.685Z,100633.41
2019-05-05T19:51:58.807Z,100633.81
2019-05-05T19:54:27.936Z,100641.67
2019-05-05T19:56:57.077Z,100639.91
2019-05-05T19:59:26.238Z,100644.67
2019-05-05T20:01:55.372Z,100646.80
2019-05-05T20:04:24.491Z,100643.25
2019-05-05T20:06:54.782Z,100639.70
2019-05-05T20:09:24.719Z,100650.20
2019-05-05T20:11:54.580Z,100648.44
2019-05-05T20:14:24.808Z,100643.13
2019-05-05T20:17:14.755Z,100647.92
2019-05-05T20:19:45.771Z,100649.19
2019-05-05T20:22:15.065Z,100649.61
2019-05-05T20:24:44.568Z,100650.83
2019-05-05T20:27:14.075Z,100653.85
2019-05-05T20:29:44.799Z,100655.98
2019-05-05T20:32:14.917Z,100658.14
2019-05-05T20:38:21.003Z,100656.70
2019-05-05T20:41:08.476Z,100653.09
2019-05-05T20:43:37.633Z,100656.05
2019-05-05T20:46:06.741Z,100665.66
2019-05-05T20:48:35.903Z,100662.53
2019-05-05T20:51:05.353Z,100661.57
2019-05-05T20:53:34.573Z,100660.23
2019-05-05T20:56:04.255Z,100662.76
2019-05-05T20:58:33.806Z,100664.86
2019-05-05T21:01:04.502Z,100670.52
2019-05-05T21:03:34.656Z,100674.35
2019-05-05T21:06:04.622Z,100674.22
2019-05-05T21:08:34.831Z,100672.43
2019-05-05T21:11:04.526Z,100672.88
2019-05-05T21:13:35.057Z,100670.20
2019-05-05T21:16:04.198Z,100672.33
2019-05-05T21:18:34.741Z,100668.30
2019-05-05T21:21:06.001Z,100674.81
2019-05-05T21:23:49.103Z,100675.66
2019-05-05T21:26:25.439Z,100676.48
2019-05-05T21:28:54.585Z,100677.34
2019-05-05T21:31:24.055Z,100680.87
2019-05-05T21:33:54.812Z,100680.84
2019-05-05T21:36:24.391Z,100679.94
2019-05-05T21:38:54.750Z,100680.37
2019-05-05T21:41:24.527Z,100683.88
2019-05-05T21:43:54.200Z,100684.76
2019-05-05T21:46:24.010Z,100679.03
2019-05-05T21:48:54.331Z,100679.00
2019-05-05T21:51:53.844Z,100685.14
2019-05-05T21:54:31.279Z,100684.20
2019-05-05T21:57:18.185Z,100692.95
2019-05-05T21:59:55.729Z,100686.83
2019-05-05T22:02:18.365Z,100691.20
2019-05-05T22:04:47.504Z,100685.92
2019-05-05T22:07:16.647Z,100685.92
2019-05-05T22:09:45.771Z,100691.17
2019-05-05T22:12:17.311Z,100688.55
2019-05-05T22:14:46.465Z,100688.13
2019-05-05T22:17:15.621Z,100683.30
2019-05-05T22:19:54.335Z,100684.18
2019-05-05T22:22:25.113Z,100686.33
2019-05-05T22:24:54.253Z,100678.45
2019-05-05T22:27:23.793Z,100683.28
2019-05-05T22:29:55.377Z,100685.91
2019-05-05T22:32:24.965Z,100686.31
2019-05-05T22:34:54.096Z,100683.23
2019-05-05T22:37:23.658Z,100682.78
2019-05-05T22:39:54.192Z,100681.88
2019-05-05T22:42:24.679Z,100687.55
2019-05-05T22:44:53.951Z,100687.98
2019-05-05T22:47:23.625Z,100680.58
2019-05-05T22:49:53.963Z,100680.13
2019-05-05T22:52:25.326Z,100681.88
2019-05-05T22:54:54.380Z,100677.42
2019-05-05T22:57:24.735Z,100677.91
2019-05-05T22:59:54.400Z,100678.38
2019-05-05T23:02:25.308Z,100678.84
2019-05-05T23:05:00.086Z,100680.20
2019-05-05T23:07:34.710Z,100678.89
2019-05-05T23:10:04.590Z,100681.52
2019-05-05T23:12:35.101Z,100678.00
2019-05-05T23:15:05.529Z,100681.95
2019-05-05T23:17:56.171Z,100672.76
2019-05-05T23:21:15.648Z,100677.55
2019-05-05T23:24:04.488Z,100676.67
2019-05-05T23:29:26.563Z,100679.24
2019-05-05T23:31:55.508Z,100675.25
2019-05-05T23:34:24.736Z,100673.03
2019-05-05T23:36:53.983Z,100678.69
2019-05-05T23:39:24.315Z,100669.05
2019-05-05T23:41:54.647Z,100669.02
2019-05-05T23:44:24.094Z,100667.23
2019-05-05T23:46:53.891Z,100668.95
2019-05-05T23:49:24.164Z,100667.16
2019-05-05T23:51:54.134Z,100666.16
2019-05-05T23:54:24.634Z,100664.30
2019-05-05T23:56:54.118Z,100667.30
2019-05-05T23:59:24.065Z,100658.46
